Aeroporto :
LOGIN :

Iscrizione | Disclaimer

   EN    FR    IT 

 










Sommario :    VFR   VFR Marginale   IFR   IFR Intensivo   IFR Molto Intensivo
Visibilità : 
Base nubi : 
>= 8 km
>= 3000ft
5 / 8 km
1000 / 3000 ft
1500m / 5 km
500 / 1000 ft
800 / 1500m
200 / 500 ft
< 800m
< 200 ft
Simboli :   Temporali  Nebbia  Neve Forte  Precipitazioni Forti  Vento > 20 kt
SIGMETs :   Varie  Temporali  Ghiacco  Turbolenza  Onda orograficha  Ceneri Vulcaniche






- Altitudine del aeroporto : 34 ft
- Codice IATA : BLK


EGNH - Blackpool

ULTIMO METAR :
  • 231050Z 31020KT 9999 VCSH FEW004 SCT017 BKN030 06/05 Q1012

METARs OBSOLETI :
  • 231020Z 31020KT 9999 VCSH FEW004 SCT025 BKN047 06/05 Q1011
  • 230950Z 31019KT 9999 VCSH FEW009 SCT025 BKN038 06/05 Q1010
  • 230920Z 32020KT 6000 -SHRA FEW005 BKN019 05/05 Q1009
  • 230850Z 31018KT 2000 -SHRA BKN002 06/06 Q1008
  • 230820Z 29018KT 2000 -DZ BKN003 06/06 Q1007

TAF AMD TAF EGNH
Valido dal 23 a 09 ore il 23 a 18 ore UTC


230942Z 2309/2318 28015G25KT 4000 BR -DZ SCT003 BKN010
BECMG 2309/2312 9999 NSW BKN030
TEMPO 2309/2315 31020G30KT
BECMG 2315/2318 28010KT CAVOK
ATIS : +44 1253 343 434 (x8315)



MetMap, La meteo Aeronautica in un colpo d'occhio ! - Copyright ORBIFLY Dicembre 2007 - Disclaimer

ORBIFLY MET'MAP TEAM :

Programmazione e sviluppo : Alexandra Zaïnal
Concezione : Baudouin d'Aumeries
Aiuto per la programmazione : Marc-Olivier Méhu
Supporto tecnico e logistico : Manuel Goepfert
Aiuto per la traduzione : Arnaldo La Scala

Contatto : metmap@orbifly.com




FONTI E CREDITI :

   NOAA